Time;durP1;ratioP1;P1;durP2;ratioP2;P2;SDS_P1;SDS_P2;PMS_P1;PMS_P2;Temp;Humidity;BMP_temperature;BMP_pressure;BME280_temperature;BME280_humidity;BME280_pressure;Samples;Min_cycle;Max_cycle;Signal;HPM_P1;HPM_P2
2021/07/07 00:00:31;;;;;;;3.90;2.35;;;19.10;61.40;;;;;;4929330;29;20067;-74
2021/07/07 00:02:57;;;;;;;2.40;2.20;;;19.00;61.30;;;;;;4930342;29;20402;-72
2021/07/07 00:05:24;;;;;;;3.03;2.13;;;19.00;61.40;;;;;;4945397;29;20487;-74
2021/07/07 00:07:50;;;;;;;5.93;2.47;;;19.00;61.40;;;;;;4930840;29;20055;-75
2021/07/07 00:10:18;;;;;;;2.97;2.40;;;19.00;61.50;;;;;;4929290;29;20023;-73
2021/07/07 00:12:45;;;;;;;4.65;2.25;;;18.90;61.40;;;;;;4944466;29;20463;-75
2021/07/07 00:15:18;;;;;;;2.40;2.08;;;18.90;61.40;;;;;;4929907;29;20067;-74
2021/07/07 00:17:45;;;;;;;3.83;2.42;;;18.90;61.50;;;;;;4928935;29;20051;-73
2021/07/07 00:20:12;;;;;;;3.80;1.90;;;19.00;61.70;;;;;;4944529;29;20452;-73
2021/07/07 00:22:38;;;;;;;3.03;2.33;;;18.90;62.20;;;;;;4928743;29;20040;-74
2021/07/07 00:25:06;;;;;;;4.00;2.15;;;18.90;61.70;;;;;;4929678;29;20051;-73
2021/07/07 00:27:32;;;;;;;2.65;2.05;;;18.90;61.70;;;;;;4929880;29;20038;-73
2021/07/07 00:29:59;;;;;;;3.50;2.65;;;18.80;61.60;;;;;;4929269;29;20039;-74
2021/07/07 00:32:26;;;;;;;2.97;2.45;;;18.80;61.70;;;;;;4930165;29;20095;-73
2021/07/07 00:34:52;;;;;;;4.05;2.28;;;18.80;61.70;;;;;;4929941;29;20450;-73
2021/07/07 00:37:18;;;;;;;4.53;2.53;;;18.80;61.80;;;;;;4930518;29;20454;-76
2021/07/07 00:39:44;;;;;;;5.35;2.50;;;18.80;61.90;;;;;;4928691;29;20102;-74
2021/07/07 00:42:10;;;;;;;5.57;2.33;;;18.80;61.90;;;;;;4929977;29;20040;-75
2021/07/07 00:44:38;;;;;;;6.38;2.35;;;18.80;62.00;;;;;;4928672;29;20094;-75
2021/07/07 00:47:05;;;;;;;3.65;2.60;;;18.70;62.40;;;;;;4930578;29;20396;-73
2021/07/07 00:49:31;;;;;;;4.20;2.38;;;18.70;61.90;;;;;;4929602;29;20031;-74
2021/07/07 00:51:57;;;;;;;3.53;2.30;;;18.70;62.00;;;;;;4928623;29;20035;-75
2021/07/07 00:54:25;;;;;;;2.33;2.13;;;18.70;62.00;;;;;;4929467;29;20043;-75
2021/07/07 00:56:52;;;;;;;3.92;2.50;;;18.70;62.10;;;;;;4929678;29;20035;-74
2021/07/07 00:59:21;;;;;;;2.25;1.90;;;18.70;62.10;;;;;;4929158;29;20047;-74
2021/07/07 01:01:47;;;;;;;3.05;2.63;;;18.60;62.10;;;;;;4929879;29;20039;-74
2021/07/07 01:04:13;;;;;;;3.83;2.55;;;18.60;62.10;;;;;;4929398;29;20499;-74
2021/07/07 01:06:39;;;;;;;3.63;2.25;;;18.60;62.10;;;;;;4929755;29;20042;-74
2021/07/07 01:09:05;;;;;;;3.40;2.58;;;18.60;62.20;;;;;;4929424;29;20040;-74
2021/07/07 01:11:33;;;;;;;6.10;2.65;;;18.60;62.30;;;;;;4928817;29;20128;-73
2021/07/07 01:13:59;;;;;;;3.00;2.38;;;18.60;62.30;;;;;;4927186;29;20036;-77
2021/07/07 01:16:27;;;;;;;2.60;2.17;;;18.60;62.30;;;;;;4928964;29;20042;-77
2021/07/07 01:18:54;;;;;;;3.70;2.60;;;18.60;62.40;;;;;;4929450;29;20051;-75
2021/07/07 01:21:21;;;;;;;2.88;2.47;;;18.60;62.40;;;;;;4929311;29;20027;-74
2021/07/07 01:23:47;;;;;;;3.75;2.88;;;18.50;62.30;;;;;;4928905;29;20056;-75
2021/07/07 01:26:13;;;;;;;4.25;2.80;;;18.60;62.50;;;;;;4929128;29;20432;-74
2021/07/07 01:28:40;;;;;;;4.60;2.25;;;18.50;62.40;;;;;;4928543;29;20034;-75
2021/07/07 01:31:06;;;;;;;3.75;2.53;;;18.50;62.40;;;;;;4920779;29;20080;-76
2021/07/07 01:33:32;;;;;;;2.80;2.22;;;18.50;62.50;;;;;;4911446;29;20036;-74
2021/07/07 01:35:59;;;;;;;5.28;2.85;;;18.50;62.50;;;;;;4911351;29;20135;-75
2021/07/07 01:38:25;;;;;;;2.70;2.50;;;18.50;62.60;;;;;;4915849;29;20510;-74
2021/07/07 01:40:55;;;;;;;3.67;2.45;;;18.50;62.60;;;;;;4930609;29;20105;-75
2021/07/07 01:43:22;;;;;;;6.68;2.70;;;18.50;62.70;;;;;;4930380;29;20107;-76
2021/07/07 01:45:48;;;;;;;4.65;2.55;;;18.50;62.70;;;;;;4923128;29;20396;-76
2021/07/07 01:48:14;;;;;;;4.47;2.67;;;18.50;62.80;;;;;;4917798;29;20043;-74
2021/07/07 01:50:40;;;;;;;4.78;2.97;;;18.50;62.80;;;;;;4914710;29;20504;-73
2021/07/07 01:53:06;;;;;;;2.60;2.40;;;18.40;62.70;;;;;;4914753;29;20126;-73
2021/07/07 01:55:32;;;;;;;3.10;2.28;;;18.40;62.70;;;;;;4912976;29;20028;-77
2021/07/07 01:57:58;;;;;;;4.00;2.42;;;18.40;62.80;;;;;;4914335;29;20364;-74
2021/07/07 02:00:26;;;;;;;3.13;2.55;;;18.40;62.80;;;;;;4914617;29;20036;-74
2021/07/07 02:02:53;;;;;;;4.15;2.78;;;18.40;62.90;;;;;;4914785;29;20064;-76
2021/07/07 02:05:23;;;;;;;4.05;2.83;;;18.40;63.00;;;;;;4913955;29;20061;-75
2021/07/07 02:07:49;;;;;;;3.95;2.67;;;18.30;62.80;;;;;;4914456;29;20436;-74
2021/07/07 02:10:16;;;;;;;2.70;2.50;;;18.30;62.80;;;;;;4928777;29;20032;-74
2021/07/07 02:12:42;;;;;;;3.10;2.58;;;18.30;62.90;;;;;;4928750;29;20096;-76
2021/07/07 02:15:20;;;;;;;3.63;2.70;;;18.30;62.90;;;;;;4913994;29;20123;-74
2021/07/07 02:17:47;;;;;;;3.65;2.58;;;18.30;63.10;;;;;;4914488;29;20380;-74
2021/07/07 02:20:14;;;;;;;4.72;3.08;;;18.30;63.00;;;;;;4914180;29;20036;-74
2021/07/07 02:22:42;;;;;;;2.85;2.65;;;18.30;63.10;;;;;;4913779;29;20135;-75
2021/07/07 02:25:11;;;;;;;4.05;2.90;;;18.30;63.20;;;;;;4914441;29;20490;-74
2021/07/07 02:27:38;;;;;;;4.00;2.70;;;18.20;63.00;;;;;;4914431;29;20028;-73
2021/07/07 02:30:08;;;;;;;3.83;2.90;;;18.20;63.10;;;;;;4912028;29;20036;-74
2021/07/07 02:32:34;;;;;;;3.55;2.83;;;18.20;63.20;;;;;;4914059;29;20123;-74
2021/07/07 02:35:00;;;;;;;4.18;3.17;;;18.20;63.20;;;;;;4914241;29;20043;-74
2021/07/07 02:37:26;;;;;;;3.55;3.05;;;18.20;63.20;;;;;;4912756;29;20036;-73
2021/07/07 02:39:52;;;;;;;3.45;3.10;;;18.20;63.30;;;;;;4914358;29;20024;-74
2021/07/07 02:42:19;;;;;;;3.03;2.72;;;18.20;63.30;;;;;;4913119;29;20056;-74
2021/07/07 02:44:45;;;;;;;4.43;2.97;;;18.20;63.40;;;;;;4913728;29;20476;-74
2021/07/07 02:47:11;;;;;;;5.43;2.95;;;18.20;63.50;;;;;;4915280;29;20039;-74
2021/07/07 02:49:37;;;;;;;4.43;3.13;;;18.20;63.50;;;;;;4917721;29;20612;-75
2021/07/07 02:52:04;;;;;;;4.45;2.88;;;18.20;63.60;;;;;;4916667;29;20032;-75
2021/07/07 02:54:30;;;;;;;4.07;2.90;;;18.20;63.60;;;;;;4917464;29;20040;-76
2021/07/07 02:56:56;;;;;;;3.90;3.35;;;18.20;63.60;;;;;;4917970;29;20091;-75
2021/07/07 02:59:22;;;;;;;3.40;2.78;;;18.10;63.50;;;;;;4917783;29;20074;-74
2021/07/07 03:01:48;;;;;;;3.10;2.80;;;18.10;63.50;;;;;;4917511;29;20059;-74
2021/07/07 03:04:14;;;;;;;4.00;3.40;;;18.10;63.60;;;;;;4917441;29;20032;-75
2021/07/07 03:06:40;;;;;;;4.88;3.63;;;18.10;63.60;;;;;;4917432;29;20079;-77
2021/07/07 03:09:06;;;;;;;5.60;3.60;;;18.10;63.70;;;;;;4916664;29;20072;-75
2021/07/07 03:11:31;;;;;;;3.90;2.92;;;18.10;63.70;;;;;;4917325;29;20063;-75
2021/07/07 03:13:57;;;;;;;5.40;3.72;;;18.00;63.60;;;;;;4915398;29;20052;-76
2021/07/07 03:16:24;;;;;;;4.82;3.22;;;18.00;63.60;;;;;;4917434;29;20095;-75
2021/07/07 03:18:50;;;;;;;4.28;3.67;;;18.00;63.60;;;;;;4917633;29;20595;-75
2021/07/07 03:21:16;;;;;;;4.57;3.47;;;18.00;63.70;;;;;;4917317;29;20032;-76
2021/07/07 03:23:42;;;;;;;4.47;3.95;;;18.00;63.70;;;;;;4916736;29;20607;-74
2021/07/07 03:26:08;;;;;;;3.70;3.22;;;18.00;63.80;;;;;;4917416;29;20029;-74
2021/07/07 03:28:33;;;;;;;5.97;3.50;;;18.00;63.80;;;;;;4916093;29;20039;-74
2021/07/07 03:31:00;;;;;;;4.80;3.40;;;18.00;63.90;;;;;;4915989;29;20518;-75
2021/07/07 03:33:25;;;;;;;4.03;3.60;;;18.00;63.90;;;;;;4916633;29;20699;-75
2021/07/07 03:35:52;;;;;;;4.07;3.58;;;18.00;64.00;;;;;;4917054;29;20115;-76
2021/07/07 03:38:18;;;;;;;5.53;4.13;;;18.00;64.00;;;;;;4916061;29;20099;-75
2021/07/07 03:40:44;;;;;;;3.95;3.38;;;17.90;63.80;;;;;;4915634;29;20067;-74
2021/07/07 03:43:10;;;;;;;5.35;4.53;;;18.00;64.10;;;;;;4917265;29;20583;-74
2021/07/07 03:45:36;;;;;;;5.30;4.30;;;18.00;64.10;;;;;;4916601;29;20087;-74
2021/07/07 03:48:03;;;;;;;5.43;3.83;;;17.90;64.00;;;;;;4914913;29;20055;-74
2021/07/07 03:50:29;;;;;;;4.95;3.33;;;17.90;64.00;;;;;;4917072;29;20539;-74
2021/07/07 03:52:55;;;;;;;5.90;3.92;;;17.90;64.10;;;;;;4914960;29;20043;-74
2021/07/07 03:55:24;;;;;;;5.43;4.03;;;17.90;64.10;;;;;;4915790;29;20498;-74
2021/07/07 03:57:50;;;;;;;4.93;3.92;;;17.90;64.10;;;;;;4916374;29;20035;-76
2021/07/07 04:00:20;;;;;;;4.20;3.78;;;17.90;64.20;;;;;;4915667;29;20499;-72
2021/07/07 04:02:46;;;;;;;8.30;3.97;;;17.90;64.20;;;;;;4916072;29;20039;-75
2021/07/07 04:05:12;;;;;;;4.63;4.05;;;17.90;64.20;;;;;;4916315;29;20028;-71
2021/07/07 04:07:38;;;;;;;5.95;3.80;;;17.90;64.30;;;;;;4916278;29;20043;-74
2021/07/07 04:10:07;;;;;;;5.00;3.80;;;17.90;64.30;;;;;;4916470;29;20059;-75
2021/07/07 04:12:34;;;;;;;5.05;3.78;;;17.90;64.30;;;;;;4916253;29;20484;-79
2021/07/07 04:14:59;;;;;;;4.78;4.10;;;17.90;64.40;;;;;;4914812;29;20055;-77
2021/07/07 04:17:25;;;;;;;4.15;3.75;;;17.90;64.40;;;;;;4914621;29;20391;-73
2021/07/07 04:19:51;;;;;;;4.32;3.88;;;17.80;64.20;;;;;;4915040;29;20095;-74
2021/07/07 04:22:17;;;;;;;6.93;4.07;;;17.80;64.30;;;;;;4916657;29;20391;-74
2021/07/07 04:24:43;;;;;;;5.55;4.50;;;17.80;64.30;;;;;;4916194;29;20092;-79
2021/07/07 04:27:09;;;;;;;4.00;3.60;;;17.80;64.40;;;;;;4916414;29;20034;-75
2021/07/07 04:29:35;;;;;;;5.68;3.95;;;17.80;64.40;;;;;;4915858;29;20543;-80
2021/07/07 04:32:01;;;;;;;5.55;4.40;;;17.80;64.40;;;;;;4916100;29;20032;-80
2021/07/07 04:34:27;;;;;;;4.90;3.72;;;17.80;64.50;;;;;;4914959;29;20035;-78
2021/07/07 04:36:53;;;;;;;5.22;4.53;;;17.80;64.50;;;;;;4914971;29;20059;-80
2021/07/07 04:39:20;;;;;;;5.60;4.47;;;17.70;64.40;;;;;;4915824;29;20388;-76
2021/07/07 04:41:46;;;;;;;5.13;4.43;;;17.70;64.40;;;;;;4916021;29;20028;-74
2021/07/07 04:44:11;;;;;;;4.35;3.85;;;17.80;64.60;;;;;;4915664;29;20043;-73
2021/07/07 04:46:37;;;;;;;4.03;3.65;;;17.80;64.60;;;;;;4915285;29;20082;-74
2021/07/07 04:49:03;;;;;;;5.13;3.83;;;17.80;64.70;;;;;;4911034;29;20051;-74
2021/07/07 04:51:30;;;;;;;5.18;4.43;;;17.80;64.70;;;;;;4911190;29;20369;-77
2021/07/07 04:53:57;;;;;;;3.83;3.42;;;17.80;64.70;;;;;;4912531;29;20532;-74
2021/07/07 04:56:23;;;;;;;4.95;3.78;;;17.80;64.70;;;;;;4912273;29;20484;-73
2021/07/07 04:58:49;;;;;;;4.47;4.07;;;17.80;64.80;;;;;;4925384;29;20035;-74
2021/07/07 05:01:15;;;;;;;4.65;4.10;;;17.80;64.80;;;;;;4921099;29;20040;-76
2021/07/07 05:03:41;;;;;;;4.68;4.10;;;17.80;64.80;;;;;;4910484;29;20267;-78
2021/07/07 05:06:07;;;;;;;4.88;4.00;;;17.80;64.90;;;;;;4911125;29;20046;-78
2021/07/07 05:08:34;;;;;;;3.83;3.50;;;17.80;64.90;;;;;;4922066;29;20028;-73
2021/07/07 05:11:00;;;;;;;4.18;3.78;;;17.80;64.90;;;;;;4912038;29;20131;-79
2021/07/07 05:13:26;;;;;;;6.45;4.20;;;17.80;64.90;;;;;;4916457;29;20130;-75
2021/07/07 05:15:52;;;;;;;3.83;3.42;;;17.80;64.80;;;;;;4908122;29;20041;-80
2021/07/07 05:18:19;;;;;;;4.22;3.70;;;17.80;64.80;;;;;;4909423;29;20032;-80
2021/07/07 05:20:45;;;;;;;4.25;3.67;;;17.80;64.80;;;;;;4905986;29;20408;-79
2021/07/07 05:23:11;;;;;;;5.70;3.95;;;17.80;64.80;;;;;;4901872;29;20043;-77
2021/07/07 05:25:40;;;;;;;4.22;3.75;;;17.80;64.80;;;;;;4901877;29;20399;-80
2021/07/07 05:28:06;;;;;;;5.68;3.83;;;17.80;64.90;;;;;;4903916;29;20583;-79
2021/07/07 05:30:33;;;;;;;6.15;3.70;;;17.80;64.90;;;;;;4907773;29;20031;-79
2021/07/07 05:33:01;;;;;;;4.13;3.63;;;17.80;64.90;;;;;;4918404;29;20054;-76
2021/07/07 05:35:27;;;;;;;6.50;4.25;;;17.80;64.90;;;;;;4927888;29;20451;-78
2021/07/07 05:37:53;;;;;;;3.88;3.58;;;17.80;64.90;;;;;;4927464;29;20059;-77
2021/07/07 05:40:20;;;;;;;7.13;4.00;;;17.80;64.90;;;;;;4928255;29;20074;-75
2021/07/07 05:42:53;;;;;;;5.63;4.15;;;17.90;65.10;;;;;;4929268;29;20055;-77
2021/07/07 05:45:22;;;;;;;4.80;3.78;;;17.90;65.10;;;;;;4929315;29;20123;-79
2021/07/07 05:47:49;;;;;;;4.53;3.70;;;17.90;65.10;;;;;;4928676;29;20105;-75
2021/07/07 05:50:16;;;;;;;4.10;3.70;;;17.90;65.10;;;;;;4916953;29;20044;-77
2021/07/07 05:52:42;;;;;;;7.28;4.10;;;17.90;65.20;;;;;;4903528;29;20028;-78
2021/07/07 05:55:09;;;;;;;7.70;4.35;;;18.00;65.40;;;;;;4900365;29;20036;-75
2021/07/07 05:57:38;;;;;;;4.60;4.20;;;18.00;65.40;;;;;;4901424;29;20030;-73
2021/07/07 06:00:11;;;;;;;4.82;4.38;;;18.00;65.40;;;;;;4899807;29;20428;-75
2021/07/07 06:02:38;;;;;;;5.63;4.70;;;18.10;65.50;;;;;;4907388;29;20539;-73
2021/07/07 06:05:07;;;;;;;6.53;4.60;;;18.20;65.50;;;;;;4907906;29;20480;-74
2021/07/07 06:07:34;;;;;;;7.97;4.72;;;18.20;65.50;;;;;;4904972;29;20768;-75
2021/07/07 06:10:00;;;;;;;7.03;4.43;;;18.30;65.60;;;;;;4907677;29;20040;-75
2021/07/07 06:12:26;;;;;;;5.13;4.57;;;18.40;65.70;;;;;;4911067;29;20048;-75
2021/07/07 06:14:52;;;;;;;4.72;4.20;;;18.40;65.70;;;;;;4908251;29;20038;-74
2021/07/07 06:17:18;;;;;;;4.45;4.05;;;18.50;65.80;;;;;;4910331;29;20028;-78
2021/07/07 06:19:45;;;;;;;5.43;4.93;;;18.40;65.60;;;;;;4924916;29;20130;-74
2021/07/07 06:22:11;;;;;;;5.00;4.45;;;18.50;65.70;;;;;;4911223;29;20420;-74
2021/07/07 06:24:37;;;;;;;5.03;4.53;;;18.60;65.90;;;;;;4931461;29;20123;-75
2021/07/07 06:27:03;;;;;;;4.80;4.32;;;18.60;65.80;;;;;;4932749;29;20087;-75
2021/07/07 06:29:29;;;;;;;3.97;3.42;;;18.70;66.00;;;;;;4932419;29;20028;-74
2021/07/07 06:31:55;;;;;;;5.45;4.53;;;18.70;65.90;;;;;;4931241;29;20032;-74
2021/07/07 06:34:21;;;;;;;4.75;4.05;;;18.80;66.10;;;;;;4931029;29;20111;-74
2021/07/07 06:36:47;;;;;;;7.43;5.07;;;18.80;66.20;;;;;;4916194;29;20024;-74
2021/07/07 06:39:13;;;;;;;5.53;4.40;;;18.80;66.10;;;;;;4928675;29;20118;-74
2021/07/07 06:41:39;;;;;;;5.22;4.38;;;18.90;66.30;;;;;;4930081;29;20063;-73
2021/07/07 06:44:05;;;;;;;5.53;4.55;;;19.00;66.40;;;;;;4928862;29;20039;-75
2021/07/07 06:46:31;;;;;;;5.75;4.63;;;19.00;66.40;;;;;;4927418;29;20028;-75
2021/07/07 06:48:57;;;;;;;5.05;3.90;;;19.10;66.60;;;;;;4906812;29;20189;-74
2021/07/07 06:51:23;;;;;;;6.38;4.10;;;19.20;66.70;;;;;;4910334;29;20039;-75
2021/07/07 06:53:49;;;;;;;4.95;4.35;;;19.30;66.80;;;;;;4914009;29;20050;-74
2021/07/07 06:56:15;;;;;;;6.22;4.80;;;19.40;66.80;;;;;;4898711;29;20016;-74
2021/07/07 06:58:41;;;;;;;5.97;4.38;;;19.40;66.70;;;;;;4915669;29;20044;-77
2021/07/07 07:01:07;;;;;;;5.72;4.63;;;19.40;66.70;;;;;;4912826;29;20162;-75
2021/07/07 07:03:33;;;;;;;4.10;3.70;;;19.50;66.80;;;;;;4923115;29;20039;-74
2021/07/07 07:05:59;;;;;;;5.75;4.35;;;19.70;67.10;;;;;;4904184;29;20619;-75
2021/07/07 07:08:25;;;;;;;7.25;4.30;;;19.80;67.60;;;;;;4920715;29;20031;-75
2021/07/07 07:10:51;;;;;;;4.70;3.88;;;19.80;67.80;;;;;;4913776;29;20036;-74
2021/07/07 07:13:16;;;;;;;4.35;3.78;;;19.90;68.00;;;;;;4908080;29;20048;-75
2021/07/07 07:15:47;;;;;;;7.57;3.97;;;19.90;68.00;;;;;;4911112;29;21359;-73
2021/07/07 07:18:14;;;;;;;5.65;3.40;;;20.00;68.20;;;;;;4906302;29;20036;-75
2021/07/07 07:20:40;;;;;;;5.38;4.03;;;20.10;68.40;;;;;;4900875;29;20120;-74
2021/07/07 07:23:06;;;;;;;4.40;4.00;;;20.20;68.50;;;;;;4904211;29;20044;-73
2021/07/07 07:25:32;;;;;;;3.80;3.22;;;20.30;68.60;;;;;;4906772;29;20040;-74
2021/07/07 07:27:58;;;;;;;3.50;3.05;;;20.40;68.60;;;;;;4918136;29;20455;-73
2021/07/07 07:30:26;;;;;;;5.28;3.53;;;20.50;68.60;;;;;;4909971;29;20041;-75
2021/07/07 07:32:52;;;;;;;3.50;3.00;;;20.50;68.40;;;;;;4902301;29;20028;-74
2021/07/07 07:35:20;;;;;;;3.30;3.00;;;20.60;68.40;;;;;;4902132;29;20036;-74
2021/07/07 07:38:01;;;;;;;3.28;2.97;;;20.60;68.30;;;;;;4904946;29;20119;-74
2021/07/07 07:40:37;;;;;;;3.70;2.72;;;20.70;68.50;;;;;;4915293;29;20037;-72
2021/07/07 07:43:05;;;;;;;4.13;3.50;;;20.70;68.30;;;;;;4902085;29;20432;-74
2021/07/07 07:45:33;;;;;;;5.22;3.63;;;20.80;68.40;;;;;;4900978;29;20479;-73
2021/07/07 07:47:59;;;;;;;4.07;3.30;;;20.90;68.60;;;;;;4905195;29;20366;-77
2021/07/07 07:50:25;;;;;;;3.92;3.35;;;21.00;68.50;;;;;;4902157;29;20422;-75
2021/07/07 07:52:51;;;;;;;4.38;3.15;;;21.20;68.70;;;;;;4907380;29;20043;-74
2021/07/07 07:55:18;;;;;;;6.78;3.50;;;21.40;68.70;;;;;;4909183;29;20039;-74
2021/07/07 07:57:43;;;;;;;3.85;3.42;;;21.60;68.70;;;;;;4913816;29;20027;-75
2021/07/07 08:00:11;;;;;;;3.70;3.33;;;22.00;69.10;;;;;;4910916;29;20046;-75
2021/07/07 08:02:44;;;;;;;5.55;3.72;;;22.40;69.40;;;;;;4903695;29;20032;-75
2021/07/07 08:05:11;;;;;;;6.00;3.42;;;23.10;69.40;;;;;;4911040;29;20028;-74
2021/07/07 08:07:38;;;;;;;3.78;3.42;;;23.80;69.30;;;;;;4910910;29;20476;-76
2021/07/07 08:10:05;;;;;;;5.15;3.65;;;24.50;69.00;;;;;;4909833;29;20062;-73
2021/07/07 08:12:31;;;;;;;3.67;3.22;;;25.10;68.40;;;;;;4912499;29;20406;-74
2021/07/07 08:14:57;;;;;;;4.40;3.15;;;25.80;67.30;;;;;;4909482;29;20243;-73
2021/07/07 08:17:23;;;;;;;4.10;3.20;;;26.40;66.00;;;;;;4911746;29;20024;-74
2021/07/07 08:19:50;;;;;;;3.72;3.38;;;26.90;65.10;;;;;;4909783;29;20046;-74
2021/07/07 08:22:17;;;;;;;4.80;2.92;;;27.50;64.00;;;;;;4909796;29;20071;-74
2021/07/07 08:24:44;;;;;;;5.03;3.00;;;28.10;63.00;;;;;;4911655;29;20040;-75
2021/07/07 08:27:10;;;;;;;4.78;3.58;;;28.60;61.90;;;;;;4910612;29;20480;-73
2021/07/07 08:29:37;;;;;;;3.55;2.50;;;28.80;60.90;;;;;;4918387;29;20472;-74
2021/07/07 08:32:05;;;;;;;4.32;3.03;;;28.80;60.50;;;;;;4909189;29;20025;-74
2021/07/07 08:34:32;;;;;;;3.80;3.10;;;28.60;60.50;;;;;;4912242;29;20050;-75
2021/07/07 08:36:58;;;;;;;4.90;2.72;;;28.40;61.20;;;;;;4910477;29;20035;-75
2021/07/07 08:39:25;;;;;;;4.65;3.13;;;28.70;60.40;;;;;;4911303;29;20055;-73
2021/07/07 08:41:51;;;;;;;2.90;2.53;;;29.30;59.20;;;;;;4911172;29;20133;-73
2021/07/07 08:44:17;;;;;;;3.15;2.42;;;30.00;57.80;;;;;;4927113;29;20062;-79
2021/07/07 08:46:43;;;;;;;3.45;2.80;;;30.40;56.70;;;;;;4929268;29;20102;-74
2021/07/07 08:49:09;;;;;;;4.63;2.80;;;30.60;56.10;;;;;;4914632;29;20531;-74
2021/07/07 08:51:40;;;;;;;3.72;2.70;;;30.60;55.80;;;;;;4907857;29;20484;-73
2021/07/07 08:54:10;;;;;;;3.20;2.65;;;30.40;55.80;;;;;;4899162;29;20051;-74
2021/07/07 08:56:40;;;;;;;3.47;2.83;;;29.90;56.10;;;;;;4910506;29;20035;-73
2021/07/07 08:59:10;;;;;;;5.95;2.67;;;29.40;56.80;;;;;;4923817;29;20028;-74
2021/07/07 09:02:06;;;;;;;3.78;2.90;;;28.80;57.40;;;;;;4920167;29;20067;-74
2021/07/07 09:04:33;;;;;;;3.70;2.45;;;28.40;58.00;;;;;;4916441;29;20135;-74
2021/07/07 09:07:01;;;;;;;3.88;2.95;;;28.00;58.70;;;;;;4910231;29;20762;-74
2021/07/07 09:09:41;;;;;;;3.30;2.97;;;27.70;59.10;;;;;;4921925;29;20104;-74
2021/07/07 09:12:12;;;;;;;3.40;2.60;;;27.40;59.40;;;;;;4909066;29;20188;-74
2021/07/07 09:14:38;;;;;;;3.00;2.70;;;27.40;59.80;;;;;;4900468;29;20491;-71
2021/07/07 09:17:14;;;;;;;3.00;2.63;;;27.40;59.80;;;;;;4901667;29;20511;-73
2021/07/07 09:19:41;;;;;;;3.65;2.85;;;27.40;59.70;;;;;;4904454;29;20033;-73
2021/07/07 09:22:11;;;;;;;2.92;2.22;;;27.60;59.70;;;;;;4888218;29;20043;-74
2021/07/07 09:24:49;;;;;;;14.63;4.32;;;27.80;59.40;;;;;;4902905;29;20074;-73
2021/07/07 09:27:17;;;;;;;37.40;3.65;;;28.00;59.10;;;;;;4902000;29;20041;-76
2021/07/07 09:29:54;;;;;;;15.23;3.65;;;28.20;58.60;;;;;;4901510;29;20024;-74
2021/07/07 09:32:27;;;;;;;9.55;3.25;;;28.30;58.30;;;;;;4902841;29;20036;-75
2021/07/07 09:34:58;;;;;;;5.88;2.75;;;28.30;58.40;;;;;;4902226;29;20032;-75
2021/07/07 09:37:41;;;;;;;7.53;3.05;;;28.30;58.20;;;;;;4910522;29;20032;-75
2021/07/07 09:40:09;;;;;;;3.85;2.53;;;28.50;58.00;;;;;;4904964;29;20040;-73
2021/07/07 09:42:38;;;;;;;5.72;2.70;;;28.50;57.80;;;;;;4901840;29;20032;-74
2021/07/07 09:45:06;;;;;;;6.53;2.50;;;28.40;57.80;;;;;;4909073;29;20087;-75
2021/07/07 09:47:32;;;;;;;11.38;3.10;;;28.40;58.50;;;;;;4907589;29;20036;-74
2021/07/07 09:49:59;;;;;;;8.10;3.13;;;28.30;58.10;;;;;;4929231;29;20047;-74
2021/07/07 09:52:29;;;;;;;9.00;2.90;;;28.20;58.40;;;;;;4905113;29;20036;-76
2021/07/07 09:54:57;;;;;;;8.20;3.00;;;28.00;58.50;;;;;;4903096;29;20037;-77
2021/07/07 09:57:23;;;;;;;8.15;2.85;;;27.80;58.70;;;;;;4892887;29;20088;-76
2021/07/07 09:59:51;;;;;;;4.10;2.45;;;27.70;59.00;;;;;;4931343;29;20115;-77
2021/07/07 10:02:17;;;;;;;5.80;2.70;;;27.50;59.20;;;;;;4922648;29;20292;-76
2021/07/07 10:04:44;;;;;;;7.32;3.17;;;27.40;59.30;;;;;;4915821;29;20063;-77
2021/07/07 10:07:12;;;;;;;4.82;2.83;;;27.30;59.50;;;;;;4910117;29;20427;-75
2021/07/07 10:09:46;;;;;;;9.52;2.90;;;27.20;59.60;;;;;;4926774;29;20098;-74
2021/07/07 10:12:13;;;;;;;4.57;3.08;;;27.10;59.90;;;;;;4928424;29;20047;-72
2021/07/07 10:14:40;;;;;;;4.18;2.83;;;26.90;59.90;;;;;;4944099;29;20048;-73
2021/07/07 10:17:06;;;;;;;6.50;3.30;;;26.80;60.00;;;;;;4929212;29;20115;-74
2021/07/07 10:19:34;;;;;;;6.63;3.20;;;26.70;60.20;;;;;;4930264;29;20487;-74
2021/07/07 10:22:00;;;;;;;5.35;2.67;;;26.50;60.40;;;;;;4927878;29;20248;-74
2021/07/07 10:24:29;;;;;;;4.60;2.70;;;26.40;60.50;;;;;;4929584;29;20039;-73
2021/07/07 10:27:01;;;;;;;4.30;2.50;;;26.30;60.60;;;;;;4928364;29;20032;-74
2021/07/07 10:29:27;;;;;;;3.33;2.42;;;26.20;60.80;;;;;;4928503;29;20038;-74
2021/07/07 10:31:59;;;;;;;4.07;2.53;;;26.10;61.00;;;;;;4914570;29;20032;-74
2021/07/07 10:34:28;;;;;;;3.80;2.30;;;26.00;61.20;;;;;;4927409;29;20047;-75
2021/07/07 10:36:56;;;;;;;4.82;2.53;;;26.10;61.40;;;;;;4928882;29;20032;-74
2021/07/07 10:39:23;;;;;;;5.40;2.70;;;26.10;61.40;;;;;;4927750;29;20042;-75
2021/07/07 10:41:51;;;;;;;2.90;2.25;;;26.30;61.40;;;;;;4929232;29;20032;-73
2021/07/07 10:44:23;;;;;;;2.85;2.45;;;26.50;61.30;;;;;;4928544;29;20398;-74
2021/07/07 10:46:52;;;;;;;3.22;2.33;;;26.70;61.20;;;;;;4932194;29;20149;-73
2021/07/07 10:49:27;;;;;;;3.50;2.25;;;26.90;61.00;;;;;;4929324;29;20826;-74
2021/07/07 10:51:55;;;;;;;3.28;2.30;;;27.00;61.00;;;;;;4927122;29;20545;-73
2021/07/07 10:54:25;;;;;;;4.00;1.88;;;27.10;60.80;;;;;;4928761;29;20040;-74
2021/07/07 10:56:52;;;;;;;2.88;2.30;;;27.10;60.80;;;;;;4919622;29;20032;-74
2021/07/07 10:59:39;;;;;;;3.08;1.80;;;27.20;60.80;;;;;;4897606;29;20477;-75
2021/07/07 11:02:18;;;;;;;2.35;1.85;;;27.20;60.80;;;;;;4901012;29;20028;-73
2021/07/07 11:04:46;;;;;;;2.25;2.05;;;27.50;60.70;;;;;;4909605;29;20035;-76
2021/07/07 11:07:25;;;;;;;1.52;1.42;;;27.70;60.70;;;;;;4899792;29;20033;-73
2021/07/07 11:09:55;;;;;;;3.95;1.80;;;27.80;60.40;;;;;;4917901;29;20032;-73
2021/07/07 11:12:38;;;;;;;4.03;1.75;;;28.10;60.30;;;;;;4921256;29;20741;-73
2021/07/07 11:15:09;;;;;;;1.83;1.60;;;28.40;60.40;;;;;;4941427;29;20031;-74
2021/07/07 11:17:45;;;;;;;2.75;1.50;;;28.70;59.40;;;;;;4930227;29;20028;-74
2021/07/07 11:20:17;;;;;;;1.58;1.42;;;29.00;58.90;;;;;;4933043;29;20071;-74
2021/07/07 11:22:46;;;;;;;2.22;1.58;;;29.20;58.60;;;;;;4918055;29;20036;-74
2021/07/07 11:25:15;;;;;;;1.35;1.25;;;29.40;58.40;;;;;;4912883;29;20420;-74
2021/07/07 11:27:42;;;;;;;1.23;1.13;;;29.60;58.00;;;;;;4909688;29;20036;-73
2021/07/07 11:30:14;;;;;;;1.92;1.55;;;29.80;57.80;;;;;;4935093;29;20103;-73
2021/07/07 11:32:48;;;;;;;1.15;0.93;;;29.90;57.50;;;;;;4912445;29;20476;-74
2021/07/07 11:35:22;;;;;;;1.35;1.02;;;30.00;57.20;;;;;;4907338;29;20351;-74
2021/07/07 11:37:58;;;;;;;1.50;1.10;;;30.00;57.10;;;;;;4909705;29;20035;-76
2021/07/07 11:40:25;;;;;;;2.05;1.33;;;30.10;57.10;;;;;;4911643;29;20535;-73
2021/07/07 11:42:51;;;;;;;1.77;1.02;;;30.30;57.00;;;;;;4912464;29;20032;-75
2021/07/07 11:45:25;;;;;;;3.88;1.38;;;30.40;56.90;;;;;;4912258;29;20032;-76
2021/07/07 11:47:57;;;;;;;1.55;1.00;;;30.60;56.60;;;;;;4914545;29;20023;-75
2021/07/07 11:50:23;;;;;;;2.58;1.20;;;30.60;56.40;;;;;;4908526;29;20613;-73
2021/07/07 11:52:55;;;;;;;1.42;1.00;;;30.80;56.40;;;;;;4930731;29;20386;-74
2021/07/07 11:55:43;;;;;;;2.53;1.38;;;30.90;56.20;;;;;;4910723;29;20029;-73
2021/07/07 11:58:10;;;;;;;0.88;0.88;;;30.90;56.00;;;;;;4925725;29;20064;-74
2021/07/07 12:00:38;;;;;;;2.92;1.10;;;30.80;56.00;;;;;;4906823;29;20025;-72
2021/07/07 12:03:04;;;;;;;1.65;0.80;;;30.70;56.20;;;;;;4917622;29;20118;-73
2021/07/07 12:05:31;;;;;;;1.92;0.93;;;30.60;56.40;;;;;;4928423;29;20094;-73
2021/07/07 12:08:16;;;;;;;2.78;1.20;;;30.40;56.30;;;;;;4918254;29;20027;-72
2021/07/07 12:10:42;;;;;;;1.48;1.20;;;30.30;56.50;;;;;;4918468;29;20036;-73
2021/07/07 12:13:27;;;;;;;2.00;1.02;;;30.20;56.80;;;;;;4926749;29;20055;-75
2021/07/07 12:16:13;;;;;;;2.42;0.88;;;30.00;56.90;;;;;;4931400;29;20036;-73
2021/07/07 12:18:40;;;;;;;1.42;1.10;;;29.90;57.00;;;;;;4930066;29;20443;-73
2021/07/07 12:21:06;;;;;;;1.25;1.15;;;29.90;57.20;;;;;;4922669;29;20056;-73
2021/07/07 12:23:54;;;;;;;1.25;0.90;;;29.80;57.30;;;;;;4926715;29;20439;-75
2021/07/07 12:26:29;;;;;;;0.80;0.80;;;29.70;57.30;;;;;;4909070;29;20044;-74
2021/07/07 12:28:58;;;;;;;1.80;0.90;;;29.70;57.50;;;;;;4918156;29;20461;-76
2021/07/07 12:31:29;;;;;;;1.77;1.27;;;29.70;57.40;;;;;;4909984;29;20257;-75
2021/07/07 12:33:56;;;;;;;1.27;1.08;;;29.70;57.40;;;;;;4911739;29;20075;-74
2021/07/07 12:36:33;;;;;;;1.63;1.20;;;29.70;57.30;;;;;;4909958;29;20033;-73
2021/07/07 12:39:09;;;;;;;1.15;0.85;;;29.70;57.40;;;;;;4911107;29;20031;-74
2021/07/07 12:41:40;;;;;;;1.40;1.17;;;29.70;57.40;;;;;;4910182;29;20048;-74
2021/07/07 12:44:09;;;;;;;0.77;0.70;;;29.70;57.40;;;;;;4923886;29;20032;-74
2021/07/07 12:46:57;;;;;;;1.20;1.00;;;29.80;57.50;;;;;;4928412;29;20112;-74
2021/07/07 12:49:35;;;;;;;1.10;0.88;;;29.70;57.30;;;;;;4926683;29;20028;-74